SKW1246 KLEX-KDTW
Flight info
| Callsign | SKW1246 |
|---|---|
| Flight time | N/A |
| Altitude | 33000 |
| Route | TORRR HANBL3 |
| Aircraft | E75L/M-SDE3GILORVW/S |
Departure
| Time | 2026-04-28 01:03 |
|---|---|
| Airport | Blue Grass Airport (KLEX) |
Arrival
| Time | N/A |
|---|---|
| Airport | Detroit Metropolitan Wayne County Airport (KDTW) |
| Time | Latitude | Longitude | Altitude | Speed | Heading |
|---|---|---|---|---|---|
| 2026-04-28 00:31 | 38.03662 | -84.59983 | 1053 ft | 0 kts | 129° |
| 2026-04-28 00:49 | 38.03676 | -84.60005 | 1053 ft | 4 kts | 129° |
| 2026-04-28 00:49 | 38.03691 | -84.60030 | 1053 ft | 4 kts | 120° |
| 2026-04-28 00:49 | 38.03698 | -84.60062 | 1053 ft | 4 kts | 83° |
| 2026-04-28 00:49 | 38.03686 | -84.60090 | 1053 ft | 4 kts | 40° |
| 2026-04-28 00:50 | 38.03662 | -84.60103 | 1053 ft | 4 kts | 1° |
| 2026-04-28 00:50 | 38.03641 | -84.60099 | 1053 ft | 4 kts | 349° |
| 2026-04-28 00:50 | 38.03633 | -84.60097 | 1053 ft | 0 kts | 349° |
| 2026-04-28 00:56 | 38.03646 | -84.60100 | 1053 ft | 0 kts | 349° |
| 2026-04-28 00:56 | 38.03664 | -84.60105 | 1053 ft | 6 kts | 349° |
| 2026-04-28 00:57 | 38.03727 | -84.60118 | 1053 ft | 12 kts | 357° |
| 2026-04-28 00:57 | 38.03820 | -84.60067 | 1053 ft | 18 kts | 35° |
| 2026-04-28 00:57 | 38.03897 | -84.60000 | 1053 ft | 5 kts | 7° |
| 2026-04-28 00:57 | 38.03944 | -84.60001 | 1053 ft | 10 kts | 27° |
| 2026-04-28 00:58 | 38.04020 | -84.59923 | 1053 ft | 17 kts | 40° |
| 2026-04-28 00:58 | 38.04096 | -84.59841 | 1053 ft | 11 kts | 34° |
| 2026-04-28 00:58 | 38.04137 | -84.59830 | 1054 ft | 3 kts | 348° |
| 2026-04-28 00:58 | 38.04138 | -84.59831 | 1054 ft | 0 kts | 345° |
| 2026-04-28 01:00 | 38.04139 | -84.59831 | 1053 ft | 0 kts | 345° |
| 2026-04-28 01:00 | 38.04141 | -84.59832 | 1053 ft | 1 kts | 332° |
| 2026-04-28 01:01 | 38.04148 | -84.59841 | 1054 ft | 2 kts | 309° |
| 2026-04-28 01:01 | 38.04162 | -84.59861 | 1054 ft | 5 kts | 313° |
| 2026-04-28 01:01 | 38.04182 | -84.59908 | 1054 ft | 7 kts | 265° |
| 2026-04-28 01:01 | 38.04149 | -84.59964 | 1054 ft | 9 kts | 222° |
| 2026-04-28 01:02 | 38.04094 | -84.60026 | 1053 ft | 12 kts | 221° |
| 2026-04-28 01:02 | 38.04016 | -84.60110 | 1053 ft | 19 kts | 222° |
| 2026-04-28 01:02 | 38.03753 | -84.60400 | 1055 ft | 93 kts | 221° |
| 2026-04-28 01:02 | 38.03085 | -84.61174 | 1207 ft | 153 kts | 216° |
| 2026-04-28 01:03 | 38.02269 | -84.61966 | 2321 ft | 145 kts | 211° |
| 2026-04-28 01:03 | 38.01328 | -84.62748 | 3181 ft | 172 kts | 211° |
| 2026-04-28 01:03 | 38.00551 | -84.63968 | 4177 ft | 196 kts | 245° |
| 2026-04-28 01:03 | 38.00665 | -84.65818 | 5101 ft | 233 kts | 281° |
| 2026-04-28 01:04 | 38.01445 | -84.67719 | 6044 ft | 259 kts | 298° |
| 2026-04-28 01:04 | 38.02765 | -84.69455 | 6976 ft | 287 kts | 318° |
| 2026-04-28 01:04 | 38.04639 | -84.70509 | 8118 ft | 304 kts | 344° |
| 2026-04-28 01:04 | 38.06772 | -84.70691 | 9348 ft | 311 kts | 356° |
| 2026-04-28 01:05 | 38.08949 | -84.70607 | 10487 ft | 316 kts | 356° |
| 2026-04-28 01:05 | 38.11201 | -84.70601 | 11308 ft | 330 kts | 354° |
| 2026-04-28 01:05 | 38.13532 | -84.70629 | 12282 ft | 338 kts | 355° |
| 2026-04-28 01:05 | 38.15889 | -84.70647 | 13489 ft | 339 kts | 354° |
| 2026-04-28 01:06 | 38.18258 | -84.70730 | 14650 ft | 342 kts | 353° |
| 2026-04-28 01:06 | 38.20655 | -84.70822 | 15769 ft | 346 kts | 352° |
| 2026-04-28 01:06 | 38.23075 | -84.70899 | 16824 ft | 351 kts | 353° |
| 2026-04-28 01:06 | 38.25499 | -84.70950 | 17805 ft | 355 kts | 353° |
| 2026-04-28 01:07 | 38.27985 | -84.70967 | 18674 ft | 360 kts | 353° |
| 2026-04-28 01:07 | 38.30505 | -84.71001 | 19464 ft | 365 kts | 353° |
| 2026-04-28 01:07 | 38.33057 | -84.71011 | 20229 ft | 370 kts | 353° |
| 2026-04-28 01:07 | 38.35648 | -84.71025 | 20923 ft | 377 kts | 353° |
| 2026-04-28 01:08 | 38.38290 | -84.71015 | 21037 ft | 382 kts | 355° |
| 2026-04-28 01:08 | 38.40942 | -84.70826 | 21041 ft | 379 kts | 358° |
| 2026-04-28 01:08 | 38.43577 | -84.70545 | 21016 ft | 380 kts | 359° |
| 2026-04-28 01:08 | 38.46207 | -84.70236 | 21023 ft | 379 kts | 359° |
| 2026-04-28 01:09 | 38.48835 | -84.69924 | 21017 ft | 379 kts | 359° |
| 2026-04-28 01:09 | 38.51460 | -84.69605 | 21031 ft | 379 kts | 359° |
| 2026-04-28 01:09 | 38.54096 | -84.69289 | 21060 ft | 380 kts | 359° |
| 2026-04-28 01:09 | 38.56742 | -84.68968 | 21064 ft | 382 kts | 359° |
| 2026-04-28 01:10 | 38.59388 | -84.68644 | 21061 ft | 382 kts | 359° |
| 2026-04-28 01:10 | 38.62034 | -84.68317 | 21057 ft | 382 kts | 359° |
| 2026-04-28 01:10 | 38.64687 | -84.67983 | 21035 ft | 382 kts | 359° |
| 2026-04-28 01:10 | 38.67331 | -84.67647 | 21024 ft | 381 kts | 359° |
| 2026-04-28 01:11 | 38.69939 | -84.67326 | 21030 ft | 381 kts | 359° |
| 2026-04-28 01:11 | 38.72587 | -84.67001 | 21045 ft | 381 kts | 359° |
| 2026-04-28 01:11 | 38.75245 | -84.66675 | 21056 ft | 385 kts | 359° |
| 2026-04-28 01:11 | 38.77889 | -84.66352 | 21065 ft | 379 kts | 358° |
| 2026-04-28 01:12 | 38.80523 | -84.66020 | 21077 ft | 381 kts | 358° |
| 2026-04-28 01:12 | 38.83167 | -84.65692 | 21089 ft | 381 kts | 358° |
| 2026-04-28 01:12 | 38.85809 | -84.65363 | 21095 ft | 382 kts | 358° |
| 2026-04-28 01:12 | 38.88451 | -84.65035 | 21100 ft | 382 kts | 358° |
| 2026-04-28 01:13 | 38.91095 | -84.64706 | 21103 ft | 382 kts | 358° |
| 2026-04-28 01:13 | 38.96357 | -84.64052 | 21120 ft | 382 kts | 358° |
| 2026-04-28 01:13 | 38.99004 | -84.63722 | 21117 ft | 382 kts | 358° |
| 2026-04-28 01:14 | 39.01654 | -84.63397 | 21111 ft | 384 kts | 358° |
| 2026-04-28 01:14 | 39.04314 | -84.63064 | 21120 ft | 384 kts | 358° |
| 2026-04-28 01:14 | 39.06969 | -84.62735 | 21118 ft | 383 kts | 358° |
| 2026-04-28 01:14 | 39.09625 | -84.62403 | 21120 ft | 384 kts | 358° |
| 2026-04-28 01:15 | 39.12285 | -84.62073 | 21121 ft | 384 kts | 358° |
| 2026-04-28 01:15 | 39.14944 | -84.61742 | 21114 ft | 384 kts | 358° |
| 2026-04-28 01:15 | 39.17601 | -84.61412 | 21111 ft | 384 kts | 358° |
| 2026-04-28 01:15 | 39.20259 | -84.61078 | 21103 ft | 384 kts | 358° |
| 2026-04-28 01:16 | 39.22917 | -84.60745 | 21097 ft | 384 kts | 359° |
| 2026-04-28 01:16 | 39.25574 | -84.60410 | 21088 ft | 383 kts | 359° |
| 2026-04-28 01:16 | 39.28234 | -84.60074 | 21095 ft | 383 kts | 359° |
| 2026-04-28 01:16 | 39.30890 | -84.59739 | 21092 ft | 383 kts | 359° |
| 2026-04-28 01:17 | 39.33548 | -84.59405 | 21087 ft | 383 kts | 359° |
| 2026-04-28 01:17 | 39.36206 | -84.59071 | 21092 ft | 383 kts | 359° |
| 2026-04-28 01:17 | 39.38828 | -84.58742 | 21064 ft | 383 kts | 359° |
| 2026-04-28 01:17 | 39.41480 | -84.58407 | 21113 ft | 381 kts | 359° |
| 2026-04-28 01:18 | 39.44138 | -84.58100 | 21157 ft | 389 kts | 358° |
| 2026-04-28 01:18 | 39.46829 | -84.57746 | 20769 ft | 390 kts | 0° |
| 2026-04-28 01:18 | 39.49497 | -84.57328 | 20858 ft | 374 kts | 359° |
| 2026-04-28 01:18 | 39.52125 | -84.57031 | 21290 ft | 385 kts | 357° |
| 2026-04-28 01:19 | 39.54795 | -84.56747 | 21256 ft | 381 kts | 359° |
| 2026-04-28 01:19 | 39.57380 | -84.56410 | 21066 ft | 368 kts | 359° |
| 2026-04-28 01:19 | 39.59903 | -84.56056 | 21085 ft | 366 kts | 359° |
| 2026-04-28 01:19 | 39.62488 | -84.55753 | 21130 ft | 378 kts | 358° |
| 2026-04-28 01:20 | 39.65116 | -84.55448 | 21580 ft | 382 kts | 358° |
| 2026-04-28 01:20 | 39.67776 | -84.55186 | 22064 ft | 386 kts | 357° |
| 2026-04-28 01:20 | 39.70470 | -84.54899 | 22060 ft | 386 kts | 359° |
| 2026-04-28 01:20 | 39.73101 | -84.54544 | 21916 ft | 374 kts | 359° |
| 2026-04-28 01:21 | 39.75617 | -84.54182 | 21638 ft | 364 kts | 359° |
| 2026-04-28 01:21 | 39.78105 | -84.53814 | 21337 ft | 356 kts | 359° |
| 2026-04-28 01:21 | 39.80546 | -84.53456 | 20977 ft | 350 kts | 359° |
| 2026-04-28 01:21 | 39.82974 | -84.53121 | 21128 ft | 360 kts | 358° |
| 2026-04-28 01:22 | 39.85540 | -84.52832 | 21131 ft | 377 kts | 358° |
| 2026-04-28 01:22 | 39.88187 | -84.52493 | 21041 ft | 383 kts | 359° |
| 2026-04-28 01:22 | 39.90846 | -84.52145 | 21032 ft | 387 kts | 359° |
| 2026-04-28 01:22 | 39.93530 | -84.51797 | 21047 ft | 388 kts | 359° |
| 2026-04-28 01:23 | 39.96166 | -84.51064 | 21046 ft | 387 kts | 18° |
| 2026-04-28 01:23 | 39.98409 | -84.49359 | 21470 ft | 363 kts | 28° |
| 2026-04-28 01:23 | 40.00489 | -84.47598 | 21341 ft | 348 kts | 26° |
| 2026-04-28 01:23 | 40.02569 | -84.46136 | 21577 ft | 333 kts | 17° |
| 2026-04-28 01:24 | 40.04778 | -84.45234 | 22240 ft | 333 kts | 5° |
| 2026-04-28 01:24 | 40.07056 | -84.44691 | 22279 ft | 327 kts | 2° |